createdAt,value
2023-03-08T00:00:29.112Z,53.55
2023-03-08T00:01:31.857Z,54.09
2023-03-08T00:02:33.621Z,53.93
2023-03-08T00:03:36.597Z,53.77
2023-03-08T00:04:38.365Z,53.61
2023-03-08T00:05:41.118Z,53.71
2023-03-08T00:06:42.828Z,53.67
2023-03-08T00:07:45.460Z,53.76
2023-03-08T00:08:48.545Z,53.87
2023-03-08T00:09:51.411Z,53.68
2023-03-08T00:10:54.484Z,53.68
2023-03-08T00:11:57.174Z,53.94
2023-03-08T00:12:58.981Z,53.66
2023-03-08T00:14:03.261Z,53.48
2023-03-08T00:15:05.914Z,53.98
2023-03-08T00:16:12.377Z,53.38
2023-03-08T00:17:14.084Z,53.84
2023-03-08T00:18:16.914Z,53.85
2023-03-08T00:19:19.651Z,53.64
2023-03-08T00:20:21.354Z,54.06
2023-03-08T00:21:24.146Z,53.86
2023-03-08T00:22:25.839Z,53.86
2023-03-08T00:23:28.755Z,54.38
2023-03-08T00:24:30.984Z,54.06
2023-03-08T00:25:33.625Z,54.03
2023-03-08T00:26:36.859Z,54.11
2023-03-08T00:27:39.550Z,53.97
2023-03-08T00:28:41.547Z,54.38
2023-03-08T00:29:44.323Z,53.68
2023-03-08T00:30:46.009Z,54.11
2023-03-08T00:31:49.060Z,53.90
2023-03-08T00:32:50.756Z,53.75
2023-03-08T00:33:54.842Z,54.01
2023-03-08T00:34:56.500Z,53.52
2023-03-08T00:36:00.834Z,54.18
2023-03-08T00:37:02.532Z,53.93
2023-03-08T00:38:05.199Z,53.79
2023-03-08T00:39:06.870Z,54.19
2023-03-08T00:40:11.003Z,53.93
2023-03-08T00:41:12.805Z,53.69
2023-03-08T00:42:16.920Z,53.89
2023-03-08T00:43:18.706Z,53.86
2023-03-08T00:44:21.428Z,53.24
2023-03-08T00:45:23.166Z,53.98
2023-03-08T00:46:26.145Z,53.90
2023-03-08T00:47:27.909Z,53.71
2023-03-08T00:48:30.550Z,53.81
2023-03-08T00:49:32.282Z,53.32
2023-03-08T00:50:34.942Z,53.23
2023-03-08T00:51:36.612Z,53.69
2023-03-08T00:52:39.648Z,53.29
2023-03-08T00:53:41.362Z,53.63
2023-03-08T00:54:44.256Z,53.35
2023-03-08T00:55:50.797Z,53.24
2023-03-08T00:56:53.576Z,53.32
2023-03-08T00:57:56.621Z,53.60
2023-03-08T00:58:59.357Z,53.44
2023-03-08T01:00:01.094Z,53.41
2023-03-08T01:01:03.885Z,53.53
2023-03-08T01:02:05.750Z,53.33
2023-03-08T01:03:08.980Z,52.96
2023-03-08T01:04:10.793Z,53.56
2023-03-08T01:05:13.679Z,53.13
2023-03-08T01:06:15.891Z,53.34
2023-03-08T01:07:19.310Z,53.15
2023-03-08T01:08:22.467Z,53.53
2023-03-08T01:09:25.172Z,53.37
2023-03-08T01:10:27.055Z,53.42
2023-03-08T01:11:31.254Z,52.85
2023-03-08T01:12:32.993Z,53.14
2023-03-08T01:13:37.266Z,53.25
2023-03-08T01:14:38.978Z,52.60
2023-03-08T01:15:41.692Z,52.56
2023-03-08T01:16:43.450Z,52.72
2023-03-08T01:17:46.217Z,53.14
2023-03-08T01:18:47.930Z,52.43
2023-03-08T01:19:50.608Z,53.10
2023-03-08T01:20:56.790Z,52.99
2023-03-08T01:21:59.607Z,52.35
2023-03-08T01:23:01.341Z,52.92
2023-03-08T01:24:04.050Z,52.97
2023-03-08T01:25:06.383Z,52.86
2023-03-08T01:26:11.539Z,52.95
2023-03-08T01:27:13.297Z,52.90
2023-03-08T01:28:15.973Z,52.89
2023-03-08T01:29:19.083Z,52.71
2023-03-08T01:30:22.004Z,52.71
2023-03-08T01:31:25.408Z,52.88
2023-03-08T01:32:28.562Z,52.67
2023-03-08T01:33:30.331Z,52.57
2023-03-08T01:34:33.081Z,52.99
2023-03-08T01:35:34.824Z,52.88
2023-03-08T01:36:37.776Z,53.12
2023-03-08T01:37:39.475Z,52.72
2023-03-08T01:38:42.545Z,52.85
2023-03-08T01:39:44.318Z,52.67
2023-03-08T01:40:47.024Z,52.83
2023-03-08T01:41:48.770Z,52.85
2023-03-08T01:42:51.451Z,52.40
2023-03-08T01:43:53.848Z,52.75
2023-03-08T01:44:59.805Z,52.91
2023-03-08T01:46:08.265Z,52.53
2023-03-08T01:47:14.827Z,52.40
2023-03-08T01:48:17.017Z,52.24
2023-03-08T01:49:21.701Z,52.23
2023-03-08T01:50:23.512Z,52.36
2023-03-08T01:51:31.567Z,51.86
2023-03-08T01:52:36.153Z,52.04
2023-03-08T01:53:39.787Z,52.28
2023-03-08T01:54:43.996Z,51.92
2023-03-08T01:55:46.682Z,51.78
2023-03-08T01:56:50.609Z,51.97
2023-03-08T01:57:54.547Z,51.84
2023-03-08T01:58:58.265Z,51.86
2023-03-08T02:00:09.500Z,51.59
2023-03-08T02:01:11.272Z,51.59
2023-03-08T02:02:14.151Z,51.46
2023-03-08T02:03:16.316Z,51.76
2023-03-08T02:04:19.023Z,52.14
2023-03-08T02:05:21.345Z,51.08
2023-03-08T02:06:24.202Z,51.70
2023-03-08T02:07:25.937Z,51.81
2023-03-08T02:08:28.662Z,51.22
2023-03-08T02:09:30.405Z,52.01
2023-03-08T02:10:33.338Z,51.43
2023-03-08T02:11:37.314Z,51.20
2023-03-08T02:12:40.959Z,50.89
2023-03-08T02:13:42.998Z,51.55
2023-03-08T02:14:46.095Z,51.05
2023-03-08T02:15:49.503Z,51.84
2023-03-08T02:16:52.264Z,51.25
2023-03-08T02:17:53.980Z,50.73
2023-03-08T02:18:58.767Z,51.42
2023-03-08T02:20:08.726Z,51.78
2023-03-08T02:21:11.416Z,51.21
2023-03-08T02:22:14.806Z,51.18
2023-03-08T02:23:21.760Z,50.78
2023-03-08T02:24:25.436Z,50.96
2023-03-08T02:25:28.334Z,51.06
2023-03-08T02:26:30.061Z,50.67
2023-03-08T02:27:32.726Z,51.03
2023-03-08T02:28:34.557Z,51.25
2023-03-08T02:29:37.463Z,51.70
2023-03-08T02:30:39.323Z,50.86
2023-03-08T02:31:41.999Z,51.45
2023-03-08T02:32:43.964Z,51.29
2023-03-08T02:33:46.768Z,51.24
2023-03-08T02:34:48.510Z,51.33
2023-03-08T02:35:51.590Z,51.82
2023-03-08T02:36:53.336Z,51.35
2023-03-08T02:37:56.184Z,51.16
2023-03-08T02:39:00.171Z,50.93
2023-03-08T02:40:01.884Z,51.66
2023-03-08T02:41:05.124Z,51.17
2023-03-08T02:42:07.235Z,51.24
2023-03-08T02:43:10.220Z,50.93
2023-03-08T02:44:11.889Z,51.34
2023-03-08T02:45:14.642Z,51.20
2023-03-08T02:46:16.335Z,51.28
2023-03-08T02:47:19.003Z,51.31
2023-03-08T02:48:20.872Z,50.67
2023-03-08T02:49:23.546Z,51.44
2023-03-08T02:50:25.207Z,50.97
2023-03-08T02:51:27.929Z,51.58
2023-03-08T02:52:29.589Z,51.06
2023-03-08T02:53:32.317Z,51.10
2023-03-08T02:54:35.343Z,51.23
2023-03-08T02:55:38.172Z,50.51
2023-03-08T02:56:40.030Z,51.36
2023-03-08T02:57:42.723Z,50.76
2023-03-08T02:58:44.592Z,51.33
2023-03-08T02:59:47.312Z,50.40
2023-03-08T03:00:50.242Z,50.56
2023-03-08T03:01:52.893Z,50.69
2023-03-08T03:02:54.579Z,50.65
2023-03-08T03:03:57.285Z,50.30
2023-03-08T03:04:58.980Z,50.20
2023-03-08T03:06:01.675Z,50.27
2023-03-08T03:07:04.030Z,49.66
2023-03-08T03:08:06.868Z,49.70
2023-03-08T03:09:09.439Z,48.68
2023-03-08T03:10:14.532Z,47.70
2023-03-08T03:11:17.965Z,47.39
2023-03-08T03:12:20.683Z,47.16
2023-03-08T03:13:22.519Z,46.76
2023-03-08T03:14:25.207Z,45.80
2023-03-08T03:15:26.874Z,45.62
2023-03-08T03:16:29.842Z,45.33
2023-03-08T03:17:32.005Z,45.27
2023-03-08T03:18:34.795Z,44.61
2023-03-08T03:19:38.088Z,44.12
2023-03-08T03:20:40.808Z,44.11
2023-03-08T03:21:42.515Z,44.60
2023-03-08T03:22:47.091Z,44.04
2023-03-08T03:23:48.918Z,44.57
2023-03-08T03:24:51.816Z,43.62
2023-03-08T03:25:54.830Z,44.16
2023-03-08T03:26:57.534Z,43.46
2023-03-08T03:27:59.272Z,43.53
2023-03-08T03:29:02.062Z,43.59
2023-03-08T03:30:04.690Z,43.26
2023-03-08T03:31:08.756Z,43.27
2023-03-08T03:32:10.691Z,42.89
2023-03-08T03:33:13.456Z,43.19
2023-03-08T03:34:15.192Z,42.72
2023-03-08T03:35:18.026Z,42.99
2023-03-08T03:36:21.168Z,43.17
2023-03-08T03:37:24.081Z,43.22
2023-03-08T03:38:25.939Z,43.25
2023-03-08T03:39:34.065Z,42.85
2023-03-08T03:40:35.742Z,43.30
2023-03-08T03:41:39.846Z,43.22
2023-03-08T03:42:41.611Z,42.63
2023-03-08T03:43:44.325Z,42.59
2023-03-08T03:44:46.210Z,42.91
2023-03-08T03:45:56.588Z,42.74
2023-03-08T03:46:58.256Z,42.72
2023-03-08T03:48:00.952Z,42.85
2023-03-08T03:49:02.740Z,42.79
2023-03-08T03:50:06.094Z,42.38
2023-03-08T03:51:10.521Z,42.59
2023-03-08T03:52:13.190Z,42.68
2023-03-08T03:53:14.929Z,42.89
2023-03-08T03:54:17.682Z,42.80
2023-03-08T03:55:19.354Z,42.49
2023-03-08T03:56:23.908Z,42.72
2023-03-08T03:57:27.073Z,42.52
2023-03-08T03:58:29.730Z,42.65
2023-03-08T03:59:33.206Z,42.52
2023-03-08T04:00:35.964Z,42.10
2023-03-08T04:01:37.803Z,42.60
2023-03-08T04:02:40.527Z,42.10
2023-03-08T04:03:42.475Z,42.14
2023-03-08T04:04:45.207Z,42.46
2023-03-08T04:05:46.919Z,41.92
2023-03-08T04:06:49.764Z,42.79
2023-03-08T04:07:51.502Z,42.59
2023-03-08T04:08:54.992Z,42.63
2023-03-08T04:09:56.748Z,42.69
2023-03-08T04:11:01.215Z,41.61
2023-03-08T04:12:05.649Z,42.25
2023-03-08T04:13:10.420Z,42.46
2023-03-08T04:14:13.234Z,42.48
2023-03-08T04:15:14.986Z,42.08
2023-03-08T04:16:19.342Z,42.49
2023-03-08T04:17:20.993Z,41.92
2023-03-08T04:18:24.009Z,42.22
2023-03-08T04:19:25.798Z,42.25
2023-03-08T04:20:28.682Z,42.30
2023-03-08T04:21:30.842Z,42.10
2023-03-08T04:22:33.652Z,42.29
2023-03-08T04:23:35.906Z,42.45
2023-03-08T04:24:38.570Z,42.57
2023-03-08T04:25:40.226Z,42.17
2023-03-08T04:26:42.886Z,42.47
2023-03-08T04:27:44.764Z,42.32
2023-03-08T04:28:48.838Z,42.45
2023-03-08T04:29:50.518Z,42.11
2023-03-08T04:30:53.192Z,42.54
2023-03-08T04:31:59.981Z,42.42
2023-03-08T04:33:02.667Z,42.46
2023-03-08T04:34:04.487Z,42.44
2023-03-08T04:35:07.667Z,42.53
2023-03-08T04:36:09.892Z,42.65
2023-03-08T04:37:13.008Z,42.86
2023-03-08T04:38:14.729Z,42.14
2023-03-08T04:39:17.434Z,42.35
2023-03-08T04:40:19.478Z,42.32
2023-03-08T04:41:22.231Z,42.40
2023-03-08T04:42:23.912Z,42.74
2023-03-08T04:43:26.599Z,42.64
2023-03-08T04:44:30.853Z,42.91
2023-03-08T04:45:32.567Z,42.32
2023-03-08T04:46:35.226Z,42.27
2023-03-08T04:47:36.948Z,42.47
2023-03-08T04:48:39.659Z,42.74
2023-03-08T04:49:41.391Z,42.85
2023-03-08T04:50:44.254Z,42.91
2023-03-08T04:51:45.973Z,42.47
2023-03-08T04:52:48.641Z,42.56
2023-03-08T04:53:51.488Z,42.48
2023-03-08T04:54:53.468Z,42.40
2023-03-08T04:55:56.311Z,42.90
2023-03-08T04:56:58.149Z,42.95
2023-03-08T04:58:00.854Z,42.68
2023-03-08T04:59:02.820Z,42.62
2023-03-08T05:00:07.926Z,42.20
2023-03-08T05:01:11.257Z,42.47
2023-03-08T05:02:14.205Z,42.73
2023-03-08T05:03:16.070Z,42.46
2023-03-08T05:04:18.748Z,42.69
2023-03-08T05:05:20.521Z,42.75
2023-03-08T05:06:25.144Z,42.88
2023-03-08T05:07:26.823Z,42.68
2023-03-08T05:08:29.502Z,43.05
2023-03-08T05:09:31.219Z,42.85
2023-03-08T05:10:33.980Z,42.78
2023-03-08T05:11:35.759Z,42.71
2023-03-08T05:12:38.437Z,42.66
2023-03-08T05:13:40.159Z,42.59
2023-03-08T05:14:42.818Z,42.45
2023-03-08T05:15:46.031Z,42.28
2023-03-08T05:16:48.747Z,42.72
2023-03-08T05:17:50.741Z,42.75
2023-03-08T05:18:53.899Z,42.64
2023-03-08T05:19:55.579Z,42.44
2023-03-08T05:20:59.468Z,42.48
2023-03-08T05:22:01.158Z,42.98
2023-03-08T05:23:03.843Z,42.77
2023-03-08T05:24:06.404Z,42.93
2023-03-08T05:25:10.557Z,43.17
2023-03-08T05:26:15.323Z,42.93
2023-03-08T05:27:17.104Z,42.94
2023-03-08T05:28:19.788Z,43.09
2023-03-08T05:29:23.047Z,43.31
2023-03-08T05:30:24.887Z,43.47
2023-03-08T05:31:29.023Z,44.01
2023-03-08T05:32:30.797Z,43.40
2023-03-08T05:33:34.082Z,43.69
2023-03-08T05:34:35.783Z,43.86
2023-03-08T05:35:38.565Z,43.62
2023-03-08T05:36:40.297Z,43.60
2023-03-08T05:37:42.962Z,43.75
2023-03-08T05:38:44.845Z,43.70
2023-03-08T05:39:48.568Z,43.13
2023-03-08T05:40:50.725Z,43.54
2023-03-08T05:41:53.399Z,43.25
2023-03-08T05:42:55.177Z,43.88
2023-03-08T05:43:59.132Z,43.05
2023-03-08T05:45:00.840Z,43.27
2023-03-08T05:46:04.982Z,43.79
2023-03-08T05:47:08.098Z,43.45
2023-03-08T05:48:10.883Z,43.62
2023-03-08T05:49:12.559Z,43.81
2023-03-08T05:50:15.283Z,43.81
2023-03-08T05:51:18.359Z,43.47
2023-03-08T05:52:21.010Z,43.33
2023-03-08T05:53:23.065Z,43.48
2023-03-08T05:54:25.946Z,43.83
2023-03-08T05:55:27.604Z,43.47
2023-03-08T05:56:30.347Z,43.72
2023-03-08T05:57:32.210Z,44.06
2023-03-08T05:58:34.859Z,43.63
2023-03-08T05:59:36.757Z,44.06
2023-03-08T06:00:39.457Z,43.21
2023-03-08T06:01:41.311Z,43.72
2023-03-08T06:02:45.469Z,43.75
2023-03-08T06:03:48.410Z,43.44
2023-03-08T06:04:51.270Z,43.39
2023-03-08T06:05:53.118Z,43.78
2023-03-08T06:06:55.828Z,43.08
2023-03-08T06:07:59.478Z,43.65
2023-03-08T06:09:02.207Z,43.91
2023-03-08T06:10:04.588Z,43.85
2023-03-08T06:11:07.857Z,44.49
2023-03-08T06:12:09.642Z,44.37
2023-03-08T06:13:12.315Z,44.93
2023-03-08T06:14:14.181Z,45.71
2023-03-08T06:15:17.284Z,46.04
2023-03-08T06:16:19.077Z,46.32
2023-03-08T06:17:21.865Z,47.02
2023-03-08T06:18:26.283Z,47.74
2023-03-08T06:19:27.982Z,48.19
2023-03-08T06:20:30.634Z,47.84
2023-03-08T06:21:32.346Z,48.42
2023-03-08T06:22:35.387Z,48.21
2023-03-08T06:23:37.178Z,48.61
2023-03-08T06:24:40.060Z,48.81
2023-03-08T06:25:43.470Z,49.36
2023-03-08T06:26:46.180Z,49.38
2023-03-08T06:27:47.831Z,49.46
2023-03-08T06:28:50.508Z,49.96
2023-03-08T06:29:52.370Z,49.89
2023-03-08T06:30:55.293Z,49.58
2023-03-08T06:31:56.981Z,49.99
2023-03-08T06:32:59.637Z,50.05
2023-03-08T06:34:03.582Z,50.10
2023-03-08T06:35:07.006Z,49.91
2023-03-08T06:36:11.002Z,49.84
2023-03-08T06:37:13.656Z,50.33
2023-03-08T06:38:15.384Z,49.92
2023-03-08T06:39:18.147Z,50.19
2023-03-08T06:40:20.817Z,49.98
2023-03-08T06:41:23.570Z,50.37
2023-03-08T06:42:40.184Z,50.55
2023-03-08T06:43:44.314Z,50.54
2023-03-08T06:44:46.021Z,50.63
2023-03-08T06:45:48.800Z,50.50
2023-03-08T06:46:50.591Z,50.36
2023-03-08T06:47:53.299Z,50.74
2023-03-08T06:48:56.081Z,50.59
2023-03-08T06:50:00.290Z,50.99
2023-03-08T06:51:03.023Z,50.52
2023-03-08T06:52:05.299Z,50.84
2023-03-08T06:53:08.016Z,50.89
2023-03-08T06:54:10.675Z,50.55
2023-03-08T06:55:12.381Z,50.74
2023-03-08T06:56:16.471Z,50.87
2023-03-08T06:57:18.216Z,51.33
2023-03-08T06:58:21.052Z,51.19
2023-03-08T06:59:23.758Z,51.17
2023-03-08T07:00:25.618Z,51.00
2023-03-08T07:01:28.301Z,51.51
2023-03-08T07:02:33.695Z,51.70
2023-03-08T07:03:36.074Z,51.37
2023-03-08T07:04:39.079Z,51.37
2023-03-08T07:05:42.178Z,51.31
2023-03-08T07:06:45.129Z,51.43
2023-03-08T07:07:46.849Z,51.17
2023-03-08T07:08:49.628Z,51.94
2023-03-08T07:09:51.321Z,51.55
2023-03-08T07:10:54.232Z,51.70
2023-03-08T07:11:56.909Z,51.77
2023-03-08T07:12:58.567Z,51.84
2023-03-08T07:14:01.358Z,51.75
2023-03-08T07:15:03.428Z,51.36
2023-03-08T07:16:10.075Z,51.44
2023-03-08T07:17:11.864Z,51.92
2023-03-08T07:18:16.016Z,51.50
2023-03-08T07:19:18.081Z,51.38
2023-03-08T07:20:22.270Z,51.65
2023-03-08T07:21:26.498Z,51.51
2023-03-08T07:22:31.068Z,51.92
2023-03-08T07:23:32.910Z,51.34
2023-03-08T07:24:35.763Z,51.40
2023-03-08T07:25:39.000Z,51.75
2023-03-08T07:26:41.675Z,51.34
2023-03-08T07:27:43.754Z,51.74
2023-03-08T07:28:49.984Z,51.99
2023-03-08T07:29:51.662Z,52.09
2023-03-08T07:30:54.711Z,51.85
2023-03-08T07:31:56.627Z,51.82
2023-03-08T07:32:59.358Z,51.86
2023-03-08T07:34:01.055Z,51.55
2023-03-08T07:35:03.915Z,51.12
2023-03-08T07:36:07.383Z,51.66
2023-03-08T07:37:14.269Z,51.19
2023-03-08T07:38:16.591Z,51.31
2023-03-08T07:39:19.361Z,51.20
2023-03-08T07:40:21.450Z,51.63
2023-03-08T07:41:24.121Z,50.63
2023-03-08T07:42:27.267Z,51.29
2023-03-08T07:43:29.937Z,50.61
2023-03-08T07:44:31.652Z,50.72
2023-03-08T07:45:34.468Z,51.07
2023-03-08T07:46:41.279Z,50.58
2023-03-08T07:47:43.585Z,51.08
2023-03-08T07:48:46.389Z,51.20
2023-03-08T07:49:48.813Z,50.87
2023-03-08T07:50:52.061Z,50.76
2023-03-08T07:51:53.762Z,50.47
2023-03-08T07:52:58.082Z,51.33
2023-03-08T07:54:00.746Z,51.03
2023-03-08T07:55:02.762Z,51.68
2023-03-08T07:56:06.054Z,51.19
2023-03-08T07:57:10.375Z,51.90
2023-03-08T07:58:13.030Z,52.06
2023-03-08T07:59:14.990Z,52.59
2023-03-08T08:00:18.834Z,52.11
2023-03-08T08:01:20.511Z,51.98
2023-03-08T08:02:23.263Z,52.29
2023-03-08T08:03:25.199Z,52.40
2023-03-08T08:04:27.994Z,52.33
2023-03-08T08:05:30.735Z,52.48
2023-03-08T08:06:32.488Z,52.77
2023-03-08T08:07:35.173Z,53.31
2023-03-08T08:08:38.266Z,53.34
2023-03-08T08:09:41.211Z,53.75
2023-03-08T08:10:44.467Z,53.50
2023-03-08T08:11:46.168Z,53.53
2023-03-08T08:12:48.994Z,53.45
2023-03-08T08:13:51.736Z,53.04
2023-03-08T08:14:53.754Z,53.26
2023-03-08T08:16:00.355Z,53.81
2023-03-08T08:17:03.531Z,53.91
2023-03-08T08:18:05.751Z,53.63
2023-03-08T08:19:09.834Z,53.69
2023-03-08T08:20:11.993Z,54.45
2023-03-08T08:21:16.020Z,53.82
2023-03-08T08:22:17.782Z,53.65
2023-03-08T08:23:20.452Z,53.99
2023-03-08T08:24:23.535Z,53.89
2023-03-08T08:25:26.257Z,53.91
2023-03-08T08:26:28.042Z,54.24
2023-03-08T08:27:30.735Z,53.89
2023-03-08T08:28:33.646Z,54.55
2023-03-08T08:29:37.621Z,54.34
2023-03-08T08:30:40.353Z,54.63
2023-03-08T08:31:43.220Z,54.50
2023-03-08T08:32:46.004Z,54.77
2023-03-08T08:33:47.878Z,54.84
2023-03-08T08:34:50.663Z,54.85
2023-03-08T08:35:52.368Z,54.74
2023-03-08T08:36:55.143Z,55.16
2023-03-08T08:37:56.950Z,54.88
2023-03-08T08:38:59.677Z,55.23
2023-03-08T08:40:07.965Z,55.29
2023-03-08T08:41:11.325Z,55.00
2023-03-08T08:42:13.178Z,54.98
2023-03-08T08:43:16.197Z,55.10
2023-03-08T08:44:19.079Z,54.79
2023-03-08T08:45:21.764Z,55.04
2023-03-08T08:46:23.528Z,54.39
2023-03-08T08:47:26.396Z,55.16
2023-03-08T08:48:28.563Z,54.59
2023-03-08T08:49:31.383Z,54.75
2023-03-08T08:50:33.042Z,54.83
2023-03-08T08:51:35.747Z,54.82
2023-03-08T08:52:38.542Z,55.05
2023-03-08T08:53:41.693Z,55.05
2023-03-08T08:54:47.376Z,54.90
2023-03-08T08:55:50.455Z,54.17
2023-03-08T08:56:53.196Z,54.55
2023-03-08T08:57:54.902Z,54.32
2023-03-08T08:58:58.202Z,54.20
2023-03-08T08:59:59.938Z,54.08
2023-03-08T09:01:05.174Z,54.50
2023-03-08T09:02:07.451Z,54.30
2023-03-08T09:03:10.554Z,54.03
2023-03-08T09:04:13.340Z,53.96
2023-03-08T09:05:16.171Z,54.12
2023-03-08T09:06:19.880Z,54.17
2023-03-08T09:07:22.724Z,53.81
2023-03-08T09:08:24.520Z,53.75
2023-03-08T09:09:27.964Z,53.64
2023-03-08T09:10:32.095Z,53.69
2023-03-08T09:11:48.446Z,53.03
2023-03-08T09:12:57.863Z,53.22
2023-03-08T09:14:02.454Z,53.14
2023-03-08T09:15:06.119Z,53.02
2023-03-08T09:16:16.404Z,52.90
2023-03-08T09:17:19.090Z,53.10
2023-03-08T09:18:21.820Z,52.98
2023-03-08T09:19:24.777Z,52.88
2023-03-08T09:20:27.583Z,53.04
2023-03-08T09:21:30.310Z,52.76
2023-03-08T09:22:33.085Z,53.02
2023-03-08T09:23:34.849Z,52.68
2023-03-08T09:24:37.616Z,52.73
2023-03-08T09:25:39.371Z,52.67
2023-03-08T09:26:43.613Z,52.77
2023-03-08T09:27:45.332Z,53.03
2023-03-08T09:28:48.038Z,53.26
2023-03-08T09:29:50.929Z,52.85
2023-03-08T09:30:53.816Z,52.72
2023-03-08T09:31:58.337Z,52.71
2023-03-08T09:33:02.086Z,52.16
2023-03-08T09:34:09.222Z,52.36
2023-03-08T09:35:11.316Z,52.10
2023-03-08T09:36:14.090Z,52.64
2023-03-08T09:37:16.772Z,52.19
2023-03-08T09:38:18.479Z,52.45
2023-03-08T09:39:21.534Z,52.37
2023-03-08T09:40:25.505Z,52.24
2023-03-08T09:41:53.095Z,52.68
2023-03-08T09:42:58.136Z,51.62
2023-03-08T09:44:15.135Z,52.77
2023-03-08T09:45:22.333Z,51.54
2023-03-08T09:46:28.983Z,51.81
2023-03-08T09:47:39.696Z,52.51
2023-03-08T09:48:44.468Z,52.45
2023-03-08T09:49:49.528Z,52.21
2023-03-08T09:50:52.977Z,51.90
2023-03-08T09:52:03.150Z,52.19
2023-03-08T09:53:12.679Z,52.02
2023-03-08T09:54:18.323Z,52.69
2023-03-08T09:55:28.174Z,52.48
2023-03-08T09:56:33.374Z,52.12
2023-03-08T09:57:41.560Z,52.17
2023-03-08T09:58:48.724Z,52.89
2023-03-08T09:59:54.453Z,53.00
2023-03-08T10:01:04.407Z,52.76
2023-03-08T10:02:18.391Z,52.61
2023-03-08T10:03:48.536Z,52.64
2023-03-08T10:05:11.870Z,52.93
2023-03-08T10:06:24.243Z,52.39
2023-03-08T10:07:38.848Z,52.49
2023-03-08T10:08:46.667Z,52.38
2023-03-08T10:09:55.986Z,52.46
2023-03-08T10:11:01.403Z,52.05
2023-03-08T10:12:13.416Z,52.52
2023-03-08T10:13:32.723Z,53.09
2023-03-08T10:14:36.711Z,52.29
2023-03-08T10:15:42.477Z,52.40
2023-03-08T10:16:46.454Z,52.68
2023-03-08T10:17:52.451Z,53.11
2023-03-08T10:18:58.353Z,52.15
2023-03-08T10:20:06.277Z,52.58
2023-03-08T10:21:11.712Z,52.52
2023-03-08T10:22:26.508Z,52.67
2023-03-08T10:23:30.178Z,52.78
2023-03-08T10:24:41.252Z,52.44
2023-03-08T10:25:44.432Z,52.39
2023-03-08T10:26:46.455Z,52.00
2023-03-08T10:27:51.542Z,53.03
2023-03-08T10:28:56.101Z,52.19
2023-03-08T10:29:59.134Z,52.75
2023-03-08T10:31:04.391Z,52.80
2023-03-08T10:32:07.321Z,52.27
2023-03-08T10:33:12.619Z,52.75
2023-03-08T10:34:17.376Z,52.69
2023-03-08T10:35:31.247Z,51.94
2023-03-08T10:36:34.083Z,51.96
2023-03-08T10:37:37.144Z,52.35
2023-03-08T10:38:39.148Z,52.08
2023-03-08T10:39:52.955Z,52.61
2023-03-08T10:41:03.660Z,52.74
2023-03-08T10:42:14.200Z,52.29
2023-03-08T10:43:30.066Z,52.45
2023-03-08T10:44:37.033Z,51.82
2023-03-08T10:45:39.311Z,52.51
2023-03-08T10:46:47.927Z,51.92
2023-03-08T10:47:56.564Z,52.98
2023-03-08T10:49:08.663Z,52.44
2023-03-08T10:50:14.179Z,52.70
2023-03-08T10:51:21.457Z,52.26
2023-03-08T10:52:26.855Z,52.31
2023-03-08T10:53:30.202Z,52.39
2023-03-08T10:54:32.082Z,52.02
2023-03-08T10:55:42.884Z,52.37
2023-03-08T10:56:46.308Z,53.03
2023-03-08T10:57:54.877Z,51.86
2023-03-08T10:58:57.815Z,52.08
2023-03-08T11:00:12.372Z,52.50
2023-03-08T11:01:25.486Z,52.54
2023-03-08T11:02:27.351Z,52.65
2023-03-08T11:03:30.265Z,53.27
2023-03-08T11:04:33.018Z,52.87
2023-03-08T11:05:34.817Z,52.09
2023-03-08T11:06:37.555Z,53.07
2023-03-08T11:07:39.348Z,53.54
2023-03-08T11:08:52.973Z,53.15
2023-03-08T11:10:07.666Z,52.76
2023-03-08T11:11:12.131Z,52.39
2023-03-08T11:12:23.881Z,52.67
2023-03-08T11:13:28.564Z,53.09
2023-03-08T11:14:31.920Z,52.72
2023-03-08T11:15:38.142Z,53.00
2023-03-08T11:16:49.991Z,53.35
2023-03-08T11:17:55.619Z,52.94
2023-03-08T11:19:08.063Z,53.42
2023-03-08T11:20:16.470Z,53.38
2023-03-08T11:21:23.391Z,53.98
2023-03-08T11:22:34.453Z,53.56
2023-03-08T11:23:40.192Z,52.78
2023-03-08T11:25:08.650Z,53.08
2023-03-08T11:26:17.709Z,53.40
2023-03-08T11:27:30.313Z,53.15
2023-03-08T11:28:55.326Z,53.64
2023-03-08T11:30:05.208Z,53.36
2023-03-08T11:31:15.342Z,53.64
2023-03-08T11:32:29.486Z,53.72
2023-03-08T11:33:54.010Z,53.90
2023-03-08T11:35:24.374Z,53.20
2023-03-08T11:36:29.746Z,54.12
2023-03-08T11:37:37.231Z,53.09
2023-03-08T11:38:39.920Z,53.80
2023-03-08T11:39:45.883Z,53.33
2023-03-08T11:40:55.209Z,53.19
2023-03-08T11:42:01.008Z,53.56
2023-03-08T11:43:20.722Z,53.08
2023-03-08T11:44:37.640Z,53.56
2023-03-08T11:45:44.245Z,53.00
2023-03-08T11:46:59.795Z,53.66
2023-03-08T11:48:33.297Z,53.49
2023-03-08T11:49:47.501Z,52.71
2023-03-08T11:50:53.714Z,52.87
2023-03-08T11:52:00.347Z,53.00
2023-03-08T11:53:12.019Z,52.91
2023-03-08T11:54:18.728Z,53.54
2023-03-08T11:55:33.497Z,53.46
2023-03-08T11:56:42.145Z,53.56
2023-03-08T11:57:49.779Z,54.17
2023-03-08T11:58:53.883Z,53.92
2023-03-08T12:00:00.864Z,53.57
2023-03-08T12:01:05.235Z,54.03
2023-03-08T12:02:15.063Z,54.78
2023-03-08T12:03:18.764Z,54.25
2023-03-08T12:04:26.547Z,54.92
2023-03-08T12:05:30.411Z,55.71
2023-03-08T12:06:36.975Z,54.85
2023-03-08T12:07:42.908Z,55.22
2023-03-08T12:08:48.617Z,55.36
2023-03-08T12:09:56.400Z,54.81
2023-03-08T12:11:01.913Z,55.32
2023-03-08T12:12:07.709Z,54.72
2023-03-08T12:13:16.979Z,55.10
2023-03-08T12:14:22.710Z,55.02
2023-03-08T12:15:29.377Z,55.18
2023-03-08T12:16:35.954Z,55.27
2023-03-08T12:17:43.903Z,56.14
2023-03-08T12:18:48.844Z,55.39
2023-03-08T12:19:52.277Z,56.07
2023-03-08T12:20:58.317Z,55.42
2023-03-08T12:22:10.124Z,55.97
2023-03-08T12:23:19.467Z,55.86
2023-03-08T12:24:30.807Z,55.52
2023-03-08T12:25:36.144Z,56.26
2023-03-08T12:26:40.588Z,55.95
2023-03-08T12:27:45.884Z,56.41
2023-03-08T12:28:51.721Z,56.44
2023-03-08T12:29:56.172Z,55.61
2023-03-08T12:31:18.137Z,56.21
2023-03-08T12:32:29.441Z,57.32
2023-03-08T12:33:33.628Z,55.85
2023-03-08T12:34:41.017Z,57.01
2023-03-08T12:35:54.886Z,56.62
2023-03-08T12:36:57.852Z,57.07
2023-03-08T12:38:00.751Z,57.66
2023-03-08T12:39:07.495Z,57.52
2023-03-08T12:40:30.401Z,56.78
2023-03-08T12:41:33.488Z,56.75
2023-03-08T12:42:38.157Z,56.77
2023-03-08T12:43:40.814Z,57.00
2023-03-08T12:44:43.307Z,57.76
2023-03-08T12:45:47.639Z,57.32
2023-03-08T12:47:02.457Z,57.20
2023-03-08T12:48:17.407Z,57.08
2023-03-08T12:49:29.125Z,56.52
2023-03-08T12:50:31.682Z,58.11
2023-03-08T12:51:34.872Z,56.78
2023-03-08T12:52:36.804Z,57.43
2023-03-08T12:53:42.514Z,57.29
2023-03-08T12:54:45.765Z,57.08
2023-03-08T12:56:03.120Z,57.47
2023-03-08T12:57:16.555Z,57.22
2023-03-08T12:58:18.294Z,57.64
2023-03-08T12:59:28.893Z,56.98
2023-03-08T13:00:32.702Z,57.29
2023-03-08T13:01:38.335Z,56.76
2023-03-08T13:02:40.121Z,57.71
2023-03-08T13:03:43.492Z,57.02
2023-03-08T13:04:47.616Z,57.42
2023-03-08T13:05:51.041Z,56.95
2023-03-08T13:07:25.591Z,57.73
2023-03-08T13:08:34.990Z,58.50
2023-03-08T13:09:43.103Z,58.54
2023-03-08T13:10:58.838Z,57.64
2023-03-08T13:12:13.659Z,58.22
2023-03-08T13:13:37.576Z,58.80
2023-03-08T13:14:43.321Z,58.34
2023-03-08T13:15:45.988Z,58.89
2023-03-08T13:16:48.856Z,58.67
2023-03-08T13:17:54.675Z,58.62
2023-03-08T13:19:04.469Z,58.45
2023-03-08T13:20:18.471Z,58.59
2023-03-08T13:21:29.158Z,58.73
2023-03-08T13:22:35.159Z,58.95
2023-03-08T13:23:40.554Z,59.31
2023-03-08T13:24:44.715Z,59.05
2023-03-08T13:25:59.411Z,59.91
2023-03-08T13:27:28.017Z,59.03
2023-03-08T13:28:46.548Z,59.31
2023-03-08T13:29:50.592Z,58.67
2023-03-08T13:30:54.718Z,59.19
2023-03-08T13:31:57.461Z,59.07
2023-03-08T13:32:59.524Z,59.52
2023-03-08T13:34:02.205Z,58.92
2023-03-08T13:35:05.822Z,59.39
2023-03-08T13:36:18.657Z,59.34
2023-03-08T13:37:22.523Z,60.08
2023-03-08T13:38:25.659Z,60.79
2023-03-08T13:39:30.095Z,60.30
2023-03-08T13:40:33.140Z,60.03
2023-03-08T13:41:36.561Z,59.59
2023-03-08T13:42:39.243Z,59.24
2023-03-08T13:43:41.049Z,58.56
2023-03-08T13:44:43.732Z,59.10
2023-03-08T13:45:47.331Z,59.27
2023-03-08T13:46:51.253Z,59.20
2023-03-08T13:47:54.831Z,59.09
2023-03-08T13:48:56.705Z,58.94
2023-03-08T13:51:00.610Z,59.51